TimeEDT,TemperatureF,Dew PointF,Humidity,Sea Level PressureIn,VisibilityMPH,Wind Direction,Wind SpeedMPH,Gust SpeedMPH,PrecipitationIn,Events,Conditions,WindDirDegrees,DateUTC
12:54 AM,28.0,21.0,75,30.03,10.0,ENE,5.8,-,N/A,,Clear,60,2013-03-24 04:54:00
1:54 AM,28.0,21.0,75,30.04,10.0,ENE,4.6,-,N/A,,Clear,70,2013-03-24 05:54:00
2:54 AM,28.0,21.0,75,30.02,10.0,NE,4.6,-,N/A,,Clear,40,2013-03-24 06:54:00
3:54 AM,28.9,21.0,72,30.02,10.0,East,3.5,-,N/A,,Clear,80,2013-03-24 07:54:00
4:54 AM,28.9,21.0,72,29.99,10.0,ENE,4.6,-,N/A,,Clear,60,2013-03-24 08:54:00
5:54 AM,28.9,21.9,75,29.97,10.0,East,4.6,-,N/A,,Clear,80,2013-03-24 09:54:00
6:54 AM,30.0,21.9,72,29.95,10.0,East,6.9,-,N/A,,Scattered Clouds,80,2013-03-24 10:54:00
7:54 AM,30.0,21.9,72,29.94,10.0,ENE,5.8,-,N/A,,Overcast,70,2013-03-24 11:54:00
8:54 AM,30.0,21.9,72,29.93,10.0,East,6.9,-,N/A,,Overcast,80,2013-03-24 12:54:00
9:54 AM,30.9,21.9,69,29.89,10.0,East,13.8,21.9,N/A,,Overcast,80,2013-03-24 13:54:00
10:54 AM,32.0,21.9,66,29.87,10.0,East,13.8,20.7,N/A,,Overcast,90,2013-03-24 14:54:00
11:54 AM,34.0,23.0,64,29.81,10.0,ENE,13.8,24.2,N/A,,Overcast,70,2013-03-24 15:54:00
12:54 PM,34.0,21.9,61,29.81,10.0,East,12.7,19.6,N/A,,Overcast,80,2013-03-24 16:54:00
1:54 PM,35.1,21.0,57,29.78,10.0,East,17.3,24.2,N/A,,Overcast,90,2013-03-24 17:54:00
2:54 PM,36.0,19.9,52,29.73,10.0,East,12.7,27.6,N/A,,Overcast,80,2013-03-24 18:54:00
3:54 PM,37.0,21.0,52,29.68,10.0,ENE,11.5,21.9,N/A,,Overcast,60,2013-03-24 19:54:00
4:54 PM,37.0,21.9,54,29.65,10.0,ENE,15.0,25.3,N/A,,Overcast,60,2013-03-24 20:54:00
5:54 PM,37.0,23.0,57,29.64,10.0,ENE,19.6,24.2,N/A,,Overcast,60,2013-03-24 21:54:00
6:54 PM,36.0,23.0,59,29.64,10.0,NE,12.7,28.8,N/A,,Overcast,50,2013-03-24 22:54:00
7:54 PM,35.1,23.0,61,29.66,10.0,NE,10.4,19.6,N/A,,Overcast,40,2013-03-24 23:54:00
8:54 PM,34.0,23.0,64,29.66,10.0,NE,11.5,19.6,0.00,,Overcast,40,2013-03-25 00:54:00
9:00 PM,33.8,23.0,65,29.63,10.0,NE,10.4,-,N/A,,Overcast,40,2013-03-25 01:00:00
9:50 PM,33.8,23.0,65,29.65,10.0,NNE,17.3,21.9,N/A,,Overcast,30,2013-03-25 01:50:00
9:54 PM,34.0,23.0,64,29.68,10.0,NNE,13.8,21.9,N/A,,Overcast,30,2013-03-25 01:54:00
10:12 PM,33.8,21.2,60,29.65,10.0,NNE,16.1,-,N/A,,Overcast,30,2013-03-25 02:12:00
10:34 PM,33.8,21.2,60,29.65,8.0,NE,13.8,23.0,0.00,Snow,Light Snow,40,2013-03-25 02:34:00
10:54 PM,33.1,21.9,64,29.67,10.0,NNE,18.4,23.0,0.00,,Overcast,30,2013-03-25 02:54:00
11:54 PM,32.0,21.9,66,29.65,10.0,NNE,12.7,24.2,N/A,,Overcast,30,2013-03-25 03:54:00